Campo Los Andes, Argentina
Current Conditions -  °F | °C
As of 1:00 PM on Monday 24 Nov 2014 (Local Time) from SAME Reporting Station
Few Clouds Few Clouds  
Wind Chill: 72°   Ceiling: Unl
Heat Index: 72°   Visibility: 6mi
Dew Point: 36°   Wind: 8mph
Humidity: 27%   Direction: 90°E
Pressure: 29.94"   Gusts: NA
Location:  33.67°S, 69.15°W
Report Text: SAME 241600Z 09007KT 9999 FEW040 22/02 Q1014
Loading
Personal Weather Stations






























Interactive Weather Map New forecast layout! Learn more

10-Day Weather Forecast

Advertisements
Track Severe Weather on mobile